sensor_id;sensor_type;location;lat;lon;timestamp;temperature;humidity
43906;DHT22;29564;46.622;13.818;2022-11-15T12:50:56;10.90;99.90
43906;DHT22;29564;46.622;13.818;2022-11-15T12:52:20;11.10;99.90
43906;DHT22;29564;46.622;13.818;2022-11-15T12:53:41;10.90;99.90
43906;DHT22;29564;46.622;13.818;2022-11-15T12:55:30;10.90;99.90
43906;DHT22;29564;46.622;13.818;2022-11-15T12:58:43;11.10;99.90
43906;DHT22;29564;46.622;13.818;2022-11-15T13:01:57;11.10;99.90
43906;DHT22;29564;46.622;13.818;2022-11-15T13:03:22;11.10;99.90
43906;DHT22;29564;46.622;13.818;2022-11-15T13:04:48;11.20;99.90
43906;DHT22;29564;46.622;13.818;2022-11-15T13:43:58;13.90;97.20
43906;DHT22;29564;46.622;13.818;2022-11-15T13:45:20;13.90;95.50
43906;DHT22;29564;46.622;13.818;2022-11-15T13:46:42;15.10;92.90
43906;DHT22;29564;46.622;13.818;2022-11-15T13:48:04;16.00;90.70
43906;DHT22;29564;46.622;13.818;2022-11-15T13:49:31;16.50;87.10
43906;DHT22;29564;46.622;13.818;2022-11-15T13:50:53;16.90;83.10
43906;DHT22;29564;46.622;13.818;2022-11-15T13:52:15;17.30;80.50
43906;DHT22;29564;46.622;13.818;2022-11-15T13:53:41;15.90;77.60
43906;DHT22;29564;46.622;13.818;2022-11-15T13:55:16;17.60;77.50
43906;DHT22;29564;46.622;13.818;2022-11-15T13:56:48;18.80;76.70
43906;DHT22;29564;46.622;13.818;2022-11-15T13:58:10;17.60;74.00
43906;DHT22;29564;46.622;13.818;2022-11-15T13:59:36;17.60;73.30
43906;DHT22;29564;46.622;13.818;2022-11-15T14:01:03;17.70;72.80
43906;DHT22;29564;46.622;13.818;2022-11-15T14:02:29;17.30;70.30
43906;DHT22;29564;46.622;13.818;2022-11-15T14:03:59;17.70;70.20
43906;DHT22;29564;46.622;13.818;2022-11-15T14:05:22;17.40;73.00
43906;DHT22;29564;46.622;13.818;2022-11-15T14:12:51;15.70;78.40
43906;DHT22;29564;46.622;13.818;2022-11-15T14:14:14;15.90;82.30
43906;DHT22;29564;46.622;13.818;2022-11-15T14:15:38;16.10;81.60
43906;DHT22;29564;46.622;13.818;2022-11-15T14:17:01;16.00;81.90
43906;DHT22;29564;46.622;13.818;2022-11-15T14:20:44;15.40;79.50
43906;DHT22;29564;46.622;13.818;2022-11-15T14:22:23;15.40;81.00
43906;DHT22;29564;46.622;13.818;2022-11-15T14:23:47;15.30;81.00
43906;DHT22;29564;46.622;13.818;2022-11-15T14:25:23;15.10;82.50
43906;DHT22;29564;46.622;13.818;2022-11-15T14:26:45;15.10;82.80
43906;DHT22;29564;46.622;13.818;2022-11-15T14:29:30;14.60;83.50
43906;DHT22;29564;46.622;13.818;2022-11-15T14:30:54;13.70;88.20
43906;DHT22;29564;46.622;13.818;2022-11-15T14:32:22;13.00;91.00
43906;DHT22;29564;46.622;13.818;2022-11-15T14:33:44;12.40;92.90
43906;DHT22;29564;46.622;13.818;2022-11-15T14:35:18;12.20;94.40
43906;DHT22;29564;46.622;13.818;2022-11-15T14:36:40;12.60;95.50
43906;DHT22;29564;46.622;13.818;2022-11-15T14:38:02;11.70;95.70
43906;DHT22;29564;46.622;13.818;2022-11-15T14:39:24;11.70;95.70
43906;DHT22;29564;46.622;13.818;2022-11-15T14:40:46;13.20;96.90
43906;DHT22;29564;46.622;13.818;2022-11-15T14:42:09;11.50;96.50
43906;DHT22;29564;46.622;13.818;2022-11-15T14:43:31;10.70;96.90
43906;DHT22;29564;46.622;13.818;2022-11-15T14:44:55;11.40;97.50
43906;DHT22;29564;46.622;13.818;2022-11-15T14:46:17;11.30;97.70
43906;DHT22;29564;46.622;13.818;2022-11-15T14:47:39;11.30;97.70
43906;DHT22;29564;46.622;13.818;2022-11-15T14:49:00;11.30;98.30
43906;DHT22;29564;46.622;13.818;2022-11-15T14:50:22;10.60;98.10
43906;DHT22;29564;46.622;13.818;2022-11-15T14:51:44;11.00;98.50
43906;DHT22;29564;46.622;13.818;2022-11-15T14:53:06;11.10;98.30
43906;DHT22;29564;46.622;13.818;2022-11-15T14:54:28;10.10;97.70
43906;DHT22;29564;46.622;13.818;2022-11-15T14:55:50;11.10;98.10
43906;DHT22;29564;46.622;13.818;2022-11-15T14:57:13;11.10;98.40
43906;DHT22;29564;46.622;13.818;2022-11-15T14:58:35;11.00;98.70
43906;DHT22;29564;46.622;13.818;2022-11-15T14:59:56;10.90;98.40
43906;DHT22;29564;46.622;13.818;2022-11-15T15:01:25;10.80;98.90
43906;DHT22;29564;46.622;13.818;2022-11-15T15:02:47;10.90;98.80
43906;DHT22;29564;46.622;13.818;2022-11-15T16:03:37;9.70;99.90
43906;DHT22;29564;46.622;13.818;2022-11-15T16:04:59;9.60;99.90
43906;DHT22;29564;46.622;13.818;2022-11-15T16:06:36;9.00;99.90
43906;DHT22;29564;46.622;13.818;2022-11-15T16:07:59;9.40;99.90
